EWG4221 EDDH-LCLK
Flight info
| Callsign | EWG4221 |
|---|---|
| Flight time | 3h 38m |
| Altitude | 37000 |
| Route | AMLUH2G AMLUH M852 DENIX DCT ZUCKA DCT OMELO DCT PEPIK DCT ETARO DCT GITMU DCT GUPRO DCT ADORU UL606 EKI UL854 KULAR UT39 TOMBI DCT DASNI M601 BONEK |
| Aircraft | A319/M-SDE3FGHIRWY/LB1 |
Departure
| Time | 2026-05-05 05:19 |
|---|---|
| Airport | Hamburg Helmut Schmidt Airport (EDDH) |
Arrival
| Time | 2026-05-05 08:57 |
|---|---|
| Airport | Larnaca International Airport (LCLK) |
| Time | Latitude | Longitude | Altitude | Speed | Heading |
|---|---|---|---|---|---|
| 2026-05-05 05:01 | 53.62811 | 10.00253 | 49 ft | 0 kts | 63° |
| 2026-05-05 05:03 | 53.62811 | 10.00252 | 49 ft | 0 kts | 63° |
| 2026-05-05 05:12 | 53.62809 | 10.00245 | 47 ft | 3 kts | 63° |
| 2026-05-05 05:12 | 53.62797 | 10.00209 | 48 ft | 4 kts | 58° |
| 2026-05-05 05:13 | 53.62782 | 10.00172 | 48 ft | 4 kts | 45° |
| 2026-05-05 05:13 | 53.62761 | 10.00148 | 48 ft | 4 kts | 352° |
| 2026-05-05 05:13 | 53.62754 | 10.00150 | 48 ft | 0 kts | 333° |
| 2026-05-05 05:16 | 53.62767 | 10.00139 | 48 ft | 5 kts | 333° |
| 2026-05-05 05:16 | 53.62794 | 10.00116 | 47 ft | 5 kts | 333° |
| 2026-05-05 05:16 | 53.62840 | 10.00068 | 46 ft | 8 kts | 316° |
| 2026-05-05 05:17 | 53.62853 | 10.00001 | 46 ft | 4 kts | 265° |
| 2026-05-05 05:17 | 53.62840 | 9.99945 | 47 ft | 8 kts | 248° |
| 2026-05-05 05:17 | 53.62818 | 9.99833 | 45 ft | 10 kts | 269° |
| 2026-05-05 05:17 | 53.62847 | 9.99760 | 44 ft | 6 kts | 336° |
| 2026-05-05 05:18 | 53.62855 | 9.99756 | 45 ft | 0 kts | 339° |
| 2026-05-05 05:18 | 53.62950 | 9.99682 | 45 ft | 51 kts | 334° |
| 2026-05-05 05:18 | 53.63527 | 9.99169 | 47 ft | 133 kts | 332° |
| 2026-05-05 05:18 | 53.64532 | 9.98281 | 247 ft | 176 kts | 332° |
| 2026-05-05 05:19 | 53.65578 | 9.97364 | 1208 ft | 169 kts | 333° |
| 2026-05-05 05:19 | 53.66663 | 9.96445 | 1829 ft | 183 kts | 334° |
| 2026-05-05 05:19 | 53.67869 | 9.95424 | 2196 ft | 205 kts | 334° |
| 2026-05-05 05:19 | 53.69270 | 9.94697 | 2788 ft | 215 kts | 355° |
| 2026-05-05 05:20 | 53.70761 | 9.94694 | 3715 ft | 215 kts | 1° |
| 2026-05-05 05:20 | 53.72258 | 9.94928 | 4533 ft | 220 kts | 19° |
| 2026-05-05 05:20 | 53.73490 | 9.96459 | 5309 ft | 227 kts | 54° |
| 2026-05-05 05:20 | 53.74020 | 9.98984 | 6062 ft | 235 kts | 82° |
| 2026-05-05 05:21 | 53.74184 | 10.01764 | 6780 ft | 241 kts | 92° |
| 2026-05-05 05:21 | 53.73857 | 10.04574 | 7434 ft | 252 kts | 113° |
| 2026-05-05 05:21 | 53.73005 | 10.07259 | 7809 ft | 275 kts | 122° |
| 2026-05-05 05:21 | 53.71996 | 10.10186 | 8359 ft | 292 kts | 122° |
| 2026-05-05 05:22 | 53.70978 | 10.13194 | 9160 ft | 298 kts | 121° |
| 2026-05-05 05:22 | 53.69941 | 10.16204 | 9978 ft | 302 kts | 126° |
| 2026-05-05 05:22 | 53.68549 | 10.18969 | 10394 ft | 320 kts | 141° |
| 2026-05-05 05:22 | 53.66658 | 10.21130 | 10662 ft | 339 kts | 157° |
| 2026-05-05 05:23 | 53.64372 | 10.22448 | 10912 ft | 356 kts | 168° |
| 2026-05-05 05:23 | 53.61942 | 10.23524 | 11483 ft | 365 kts | 168° |
| 2026-05-05 05:23 | 53.59485 | 10.24635 | 12214 ft | 368 kts | 168° |
| 2026-05-05 05:23 | 53.57005 | 10.25768 | 12965 ft | 371 kts | 168° |
| 2026-05-05 05:24 | 53.54496 | 10.26922 | 13675 ft | 374 kts | 168° |
| 2026-05-05 05:24 | 53.51977 | 10.28084 | 14371 ft | 377 kts | 168° |
| 2026-05-05 05:24 | 53.49430 | 10.29257 | 15053 ft | 381 kts | 168° |
| 2026-05-05 05:24 | 53.46865 | 10.30428 | 15692 ft | 384 kts | 168° |
| 2026-05-05 05:25 | 53.44279 | 10.31604 | 16340 ft | 387 kts | 168° |
| 2026-05-05 05:25 | 53.41673 | 10.32790 | 16957 ft | 390 kts | 168° |
| 2026-05-05 05:25 | 53.39036 | 10.33985 | 17580 ft | 393 kts | 168° |
| 2026-05-05 05:25 | 53.36389 | 10.35176 | 18178 ft | 395 kts | 168° |
| 2026-05-05 05:26 | 53.33724 | 10.36374 | 18758 ft | 398 kts | 168° |
| 2026-05-05 05:26 | 53.31035 | 10.37580 | 19312 ft | 401 kts | 168° |
| 2026-05-05 05:26 | 53.28334 | 10.38789 | 19849 ft | 404 kts | 168° |
| 2026-05-05 05:26 | 53.25611 | 10.40007 | 20380 ft | 406 kts | 168° |
| 2026-05-05 05:27 | 53.22871 | 10.41230 | 20894 ft | 408 kts | 168° |
| 2026-05-05 05:27 | 53.20121 | 10.42452 | 21382 ft | 411 kts | 169° |
| 2026-05-05 05:27 | 53.15510 | 10.44508 | 22163 ft | 415 kts | 168° |
| 2026-05-05 05:28 | 53.12713 | 10.45747 | 22609 ft | 417 kts | 169° |
| 2026-05-05 05:28 | 53.09888 | 10.46836 | 23037 ft | 418 kts | 172° |
| 2026-05-05 05:28 | 53.07027 | 10.47766 | 23467 ft | 419 kts | 173° |
| 2026-05-05 05:28 | 53.04146 | 10.48602 | 23885 ft | 421 kts | 174° |
| 2026-05-05 05:29 | 53.01248 | 10.49411 | 24288 ft | 423 kts | 174° |
| 2026-05-05 05:29 | 52.98338 | 10.50234 | 24684 ft | 425 kts | 174° |
| 2026-05-05 05:29 | 52.95417 | 10.51092 | 25068 ft | 428 kts | 173° |
| 2026-05-05 05:29 | 52.92484 | 10.51987 | 25451 ft | 430 kts | 173° |
| 2026-05-05 05:30 | 52.89538 | 10.52905 | 25812 ft | 431 kts | 173° |
| 2026-05-05 05:30 | 52.86582 | 10.53835 | 26166 ft | 433 kts | 173° |
| 2026-05-05 05:30 | 52.83612 | 10.54764 | 26509 ft | 435 kts | 173° |
| 2026-05-05 05:30 | 52.80632 | 10.55690 | 26842 ft | 437 kts | 173° |
| 2026-05-05 05:31 | 52.77636 | 10.56620 | 27166 ft | 438 kts | 173° |
| 2026-05-05 05:31 | 52.74676 | 10.57532 | 27477 ft | 440 kts | 173° |
| 2026-05-05 05:31 | 52.71664 | 10.58456 | 27795 ft | 441 kts | 173° |
| 2026-05-05 05:31 | 52.68599 | 10.59395 | 28106 ft | 443 kts | 173° |
| 2026-05-05 05:32 | 52.65606 | 10.60303 | 28483 ft | 442 kts | 174° |
| 2026-05-05 05:32 | 52.62584 | 10.61222 | 28934 ft | 440 kts | 174° |
| 2026-05-05 05:32 | 52.59579 | 10.62144 | 29374 ft | 438 kts | 174° |
| 2026-05-05 05:32 | 52.56587 | 10.63056 | 29821 ft | 436 kts | 174° |
| 2026-05-05 05:33 | 52.53608 | 10.63957 | 30257 ft | 434 kts | 174° |
| 2026-05-05 05:33 | 52.50639 | 10.64856 | 30684 ft | 433 kts | 174° |
| 2026-05-05 05:33 | 52.47684 | 10.65754 | 31080 ft | 432 kts | 174° |
| 2026-05-05 05:33 | 52.44732 | 10.66647 | 31466 ft | 431 kts | 174° |
| 2026-05-05 05:34 | 52.41788 | 10.67536 | 31843 ft | 430 kts | 174° |
| 2026-05-05 05:34 | 52.38843 | 10.68428 | 32217 ft | 430 kts | 174° |
| 2026-05-05 05:34 | 52.35904 | 10.69318 | 32561 ft | 430 kts | 174° |
| 2026-05-05 05:34 | 52.32967 | 10.70206 | 32924 ft | 429 kts | 174° |
| 2026-05-05 05:35 | 52.30038 | 10.71087 | 33279 ft | 428 kts | 174° |
| 2026-05-05 05:35 | 52.27109 | 10.71968 | 33639 ft | 428 kts | 174° |
| 2026-05-05 05:35 | 52.24184 | 10.72845 | 34000 ft | 427 kts | 174° |
| 2026-05-05 05:35 | 52.21266 | 10.73719 | 34353 ft | 426 kts | 174° |
| 2026-05-05 05:36 | 52.18340 | 10.74596 | 34690 ft | 426 kts | 174° |
| 2026-05-05 05:36 | 52.15425 | 10.75466 | 35006 ft | 427 kts | 174° |
| 2026-05-05 05:36 | 52.12499 | 10.76336 | 35292 ft | 427 kts | 174° |
| 2026-05-05 05:36 | 52.09579 | 10.77206 | 35568 ft | 428 kts | 174° |
| 2026-05-05 05:37 | 52.06647 | 10.78080 | 35826 ft | 428 kts | 174° |
| 2026-05-05 05:37 | 52.03710 | 10.78954 | 36083 ft | 429 kts | 174° |
| 2026-05-05 05:37 | 52.00774 | 10.79829 | 36326 ft | 429 kts | 174° |
| 2026-05-05 05:37 | 51.97832 | 10.80706 | 36541 ft | 430 kts | 174° |
| 2026-05-05 05:38 | 51.94885 | 10.81582 | 36792 ft | 430 kts | 174° |
| 2026-05-05 05:38 | 51.91948 | 10.82451 | 36906 ft | 428 kts | 174° |
| 2026-05-05 05:38 | 51.86151 | 10.84160 | 36928 ft | 425 kts | 174° |
| 2026-05-05 05:39 | 51.80302 | 10.85872 | 36927 ft | 425 kts | 174° |
| 2026-05-05 05:39 | 51.74523 | 10.87609 | 36919 ft | 426 kts | 170° |
| 2026-05-05 05:40 | 51.71704 | 10.89185 | 36916 ft | 433 kts | 159° |
| 2026-05-05 05:40 | 51.69246 | 10.91530 | 36928 ft | 440 kts | 147° |
| 2026-05-05 05:40 | 51.66973 | 10.94880 | 36918 ft | 447 kts | 135° |
| 2026-05-05 05:40 | 51.65153 | 10.98986 | 36925 ft | 455 kts | 123° |
| 2026-05-05 05:41 | 51.62632 | 11.08404 | 36918 ft | 459 kts | 116° |
| 2026-05-05 05:41 | 51.60221 | 11.17921 | 36911 ft | 460 kts | 116° |
| 2026-05-05 05:42 | 51.57796 | 11.27438 | 36917 ft | 460 kts | 116° |
| 2026-05-05 05:42 | 51.55356 | 11.36960 | 36908 ft | 460 kts | 116° |
| 2026-05-05 05:43 | 51.52906 | 11.46451 | 36920 ft | 461 kts | 117° |
| 2026-05-05 05:43 | 51.50451 | 11.55959 | 36919 ft | 461 kts | 117° |
| 2026-05-05 05:44 | 51.47991 | 11.65454 | 36912 ft | 461 kts | 117° |
| 2026-05-05 05:44 | 51.45520 | 11.74935 | 36914 ft | 461 kts | 117° |
| 2026-05-05 05:45 | 51.43043 | 11.84417 | 36919 ft | 461 kts | 117° |
| 2026-05-05 05:45 | 51.40561 | 11.93869 | 36920 ft | 461 kts | 117° |
| 2026-05-05 05:46 | 51.38065 | 12.03333 | 36920 ft | 461 kts | 117° |
| 2026-05-05 05:46 | 51.35563 | 12.12780 | 36929 ft | 461 kts | 117° |
| 2026-05-05 05:47 | 51.33052 | 12.22218 | 36930 ft | 461 kts | 117° |
| 2026-05-05 05:47 | 51.30534 | 12.31643 | 36931 ft | 461 kts | 117° |
| 2026-05-05 05:48 | 51.28012 | 12.41045 | 36922 ft | 461 kts | 117° |
| 2026-05-05 05:48 | 51.25482 | 12.50444 | 36919 ft | 460 kts | 117° |
| 2026-05-05 05:49 | 51.22946 | 12.59826 | 36920 ft | 460 kts | 117° |
| 2026-05-05 05:49 | 51.20408 | 12.69199 | 36917 ft | 460 kts | 117° |
| 2026-05-05 05:50 | 51.17865 | 12.78545 | 36928 ft | 459 kts | 117° |
| 2026-05-05 05:50 | 51.15314 | 12.87861 | 36920 ft | 459 kts | 117° |
| 2026-05-05 05:51 | 51.12756 | 12.97169 | 36925 ft | 459 kts | 117° |
| 2026-05-05 05:51 | 51.10191 | 13.06454 | 36914 ft | 458 kts | 117° |
| 2026-05-05 05:52 | 51.07622 | 13.15722 | 36915 ft | 458 kts | 117° |
| 2026-05-05 05:52 | 51.05174 | 13.24538 | 36908 ft | 458 kts | 117° |
| 2026-05-05 05:53 | 51.02588 | 13.33797 | 36901 ft | 458 kts | 117° |
| 2026-05-05 05:53 | 51.00005 | 13.43032 | 36902 ft | 458 kts | 117° |
| 2026-05-05 05:54 | 50.97412 | 13.52254 | 36907 ft | 457 kts | 117° |
| 2026-05-05 05:54 | 50.94813 | 13.61459 | 36894 ft | 457 kts | 117° |
| 2026-05-05 05:55 | 50.92222 | 13.70585 | 36907 ft | 457 kts | 118° |
| 2026-05-05 05:55 | 50.89590 | 13.79822 | 36910 ft | 457 kts | 117° |
| 2026-05-05 05:56 | 50.86975 | 13.88984 | 36901 ft | 457 kts | 117° |
| 2026-05-05 05:56 | 50.84234 | 13.98013 | 36909 ft | 453 kts | 125° |
| 2026-05-05 05:57 | 50.80300 | 14.05639 | 36904 ft | 445 kts | 139° |
| 2026-05-05 05:57 | 50.75952 | 14.12509 | 36909 ft | 446 kts | 138° |
| 2026-05-05 05:58 | 50.71587 | 14.19454 | 36909 ft | 445 kts | 138° |
| 2026-05-05 05:58 | 50.67210 | 14.26386 | 36908 ft | 445 kts | 138° |
| 2026-05-05 05:59 | 50.62835 | 14.33278 | 36907 ft | 445 kts | 138° |
| 2026-05-05 05:59 | 50.58451 | 14.40173 | 36901 ft | 445 kts | 138° |
| 2026-05-05 06:00 | 50.54071 | 14.47040 | 36904 ft | 445 kts | 139° |
| 2026-05-05 06:00 | 50.49680 | 14.53885 | 36896 ft | 445 kts | 139° |
| 2026-05-05 06:01 | 50.45285 | 14.60736 | 36891 ft | 445 kts | 139° |
| 2026-05-05 06:01 | 50.40892 | 14.67572 | 36896 ft | 445 kts | 138° |
| 2026-05-05 06:02 | 50.36488 | 14.74413 | 36890 ft | 445 kts | 139° |
| 2026-05-05 06:02 | 50.32078 | 14.81227 | 36881 ft | 446 kts | 139° |
| 2026-05-05 06:03 | 50.27660 | 14.88045 | 36876 ft | 446 kts | 139° |
| 2026-05-05 06:03 | 50.23229 | 14.94855 | 36877 ft | 447 kts | 139° |
| 2026-05-05 06:04 | 50.18789 | 15.01646 | 36883 ft | 447 kts | 139° |
| 2026-05-05 06:04 | 50.14352 | 15.08426 | 36885 ft | 447 kts | 139° |
| 2026-05-05 06:05 | 50.09908 | 15.15207 | 36884 ft | 447 kts | 139° |
| 2026-05-05 06:05 | 50.05465 | 15.21960 | 36882 ft | 447 kts | 139° |
| 2026-05-05 06:06 | 50.01014 | 15.28714 | 36883 ft | 446 kts | 139° |
| 2026-05-05 06:06 | 49.96568 | 15.35446 | 36878 ft | 446 kts | 139° |
| 2026-05-05 06:07 | 49.92113 | 15.42162 | 36876 ft | 446 kts | 139° |
| 2026-05-05 06:07 | 49.87657 | 15.48860 | 36872 ft | 446 kts | 139° |
| 2026-05-05 06:08 | 49.83204 | 15.55550 | 36869 ft | 446 kts | 139° |
| 2026-05-05 06:08 | 49.78743 | 15.62225 | 36864 ft | 445 kts | 139° |
| 2026-05-05 06:09 | 49.74284 | 15.68873 | 36865 ft | 446 kts | 139° |
| 2026-05-05 06:09 | 49.69821 | 15.75521 | 36864 ft | 445 kts | 139° |
| 2026-05-05 06:10 | 49.65350 | 15.82144 | 36866 ft | 445 kts | 139° |
| 2026-05-05 06:10 | 49.60876 | 15.88754 | 36869 ft | 446 kts | 139° |
| 2026-05-05 06:11 | 49.56427 | 15.95324 | 36873 ft | 446 kts | 139° |
| 2026-05-05 06:11 | 49.52676 | 16.00859 | 36877 ft | 446 kts | 139° |
| 2026-05-05 06:12 | 49.48196 | 16.07450 | 36883 ft | 446 kts | 139° |
| 2026-05-05 06:12 | 49.43706 | 16.14027 | 36889 ft | 446 kts | 139° |
| 2026-05-05 06:13 | 49.39198 | 16.20599 | 36894 ft | 446 kts | 139° |
| 2026-05-05 06:13 | 49.34701 | 16.27158 | 36885 ft | 446 kts | 139° |
| 2026-05-05 06:14 | 49.30203 | 16.33706 | 36897 ft | 446 kts | 139° |
| 2026-05-05 06:14 | 49.25683 | 16.40239 | 36890 ft | 446 kts | 139° |
| 2026-05-05 06:15 | 49.21157 | 16.46758 | 36888 ft | 447 kts | 139° |
| 2026-05-05 06:15 | 49.16635 | 16.53291 | 36891 ft | 447 kts | 139° |
| 2026-05-05 06:16 | 49.12114 | 16.59812 | 36884 ft | 447 kts | 139° |
| 2026-05-05 06:16 | 49.07575 | 16.66319 | 36884 ft | 448 kts | 139° |
| 2026-05-05 06:17 | 49.03027 | 16.72815 | 36886 ft | 448 kts | 139° |
| 2026-05-05 06:17 | 48.98468 | 16.79314 | 36884 ft | 448 kts | 139° |
| 2026-05-05 06:18 | 48.93914 | 16.85797 | 36888 ft | 449 kts | 139° |
| 2026-05-05 06:18 | 48.89379 | 16.92237 | 36888 ft | 449 kts | 139° |
| 2026-05-05 06:19 | 48.84814 | 16.98691 | 36892 ft | 449 kts | 139° |
| 2026-05-05 06:19 | 48.80243 | 17.05141 | 36891 ft | 449 kts | 139° |
| 2026-05-05 06:20 | 48.75706 | 17.11667 | 36895 ft | 450 kts | 137° |
| 2026-05-05 06:20 | 48.71347 | 17.18472 | 36892 ft | 450 kts | 135° |
| 2026-05-05 06:21 | 48.67027 | 17.25340 | 36908 ft | 450 kts | 136° |
| 2026-05-05 06:21 | 48.62665 | 17.32134 | 36906 ft | 450 kts | 136° |
| 2026-05-05 06:22 | 48.58268 | 17.38870 | 36919 ft | 450 kts | 136° |
| 2026-05-05 06:22 | 48.53869 | 17.45593 | 36925 ft | 450 kts | 136° |
| 2026-05-05 06:23 | 48.49466 | 17.52332 | 36931 ft | 450 kts | 136° |
| 2026-05-05 06:23 | 48.45065 | 17.59050 | 36932 ft | 450 kts | 136° |
| 2026-05-05 06:24 | 48.40691 | 17.65707 | 36939 ft | 450 kts | 136° |
| 2026-05-05 06:24 | 48.36285 | 17.72393 | 36938 ft | 450 kts | 136° |
| 2026-05-05 06:25 | 48.31874 | 17.79070 | 36938 ft | 450 kts | 136° |
| 2026-05-05 06:25 | 48.27454 | 17.85739 | 36942 ft | 450 kts | 136° |
| 2026-05-05 06:26 | 48.23037 | 17.92395 | 36948 ft | 450 kts | 136° |
| 2026-05-05 06:26 | 48.18611 | 17.99052 | 36952 ft | 450 kts | 136° |
| 2026-05-05 06:27 | 48.11974 | 18.08997 | 36956 ft | 450 kts | 136° |
| 2026-05-05 06:28 | 48.07540 | 18.15610 | 36960 ft | 450 kts | 136° |
| 2026-05-05 06:28 | 48.03099 | 18.22223 | 36965 ft | 450 kts | 136° |
| 2026-05-05 06:29 | 47.98657 | 18.28823 | 36964 ft | 450 kts | 136° |
| 2026-05-05 06:29 | 47.94217 | 18.35413 | 36971 ft | 450 kts | 136° |
| 2026-05-05 06:30 | 47.89800 | 18.41949 | 36969 ft | 450 kts | 136° |
| 2026-05-05 06:30 | 47.85345 | 18.48509 | 36972 ft | 450 kts | 136° |
| 2026-05-05 06:31 | 47.80880 | 18.55063 | 36972 ft | 450 kts | 136° |
| 2026-05-05 06:31 | 47.76410 | 18.61609 | 36976 ft | 451 kts | 136° |
| 2026-05-05 06:32 | 47.71937 | 18.68154 | 36976 ft | 452 kts | 136° |
| 2026-05-05 06:32 | 47.67453 | 18.74699 | 36982 ft | 452 kts | 136° |
| 2026-05-05 06:33 | 47.62964 | 18.81236 | 36986 ft | 453 kts | 136° |
| 2026-05-05 06:33 | 47.58458 | 18.87774 | 36990 ft | 453 kts | 136° |
| 2026-05-05 06:34 | 47.53951 | 18.94287 | 36994 ft | 454 kts | 136° |
| 2026-05-05 06:34 | 47.49454 | 19.00773 | 36998 ft | 455 kts | 136° |
| 2026-05-05 06:35 | 47.44992 | 19.07408 | 37006 ft | 455 kts | 135° |
| 2026-05-05 06:35 | 47.40580 | 19.14134 | 37016 ft | 456 kts | 135° |
| 2026-05-05 06:36 | 47.36151 | 19.20851 | 37016 ft | 457 kts | 135° |
| 2026-05-05 06:36 | 47.31695 | 19.27521 | 37017 ft | 457 kts | 135° |
| 2026-05-05 06:37 | 47.27222 | 19.34170 | 37018 ft | 457 kts | 135° |
| 2026-05-05 06:37 | 47.22756 | 19.40823 | 37022 ft | 457 kts | 135° |
| 2026-05-05 06:38 | 47.18285 | 19.47469 | 37026 ft | 457 kts | 135° |
| 2026-05-05 06:38 | 47.13795 | 19.54103 | 37028 ft | 457 kts | 135° |
| 2026-05-05 06:39 | 47.09304 | 19.60715 | 37035 ft | 457 kts | 135° |
| 2026-05-05 06:39 | 47.04814 | 19.67326 | 37040 ft | 457 kts | 135° |
| 2026-05-05 06:40 | 47.00316 | 19.73939 | 37041 ft | 458 kts | 135° |
| 2026-05-05 06:40 | 46.95816 | 19.80544 | 37040 ft | 458 kts | 135° |
| 2026-05-05 06:41 | 46.91303 | 19.87142 | 37040 ft | 459 kts | 135° |
| 2026-05-05 06:41 | 46.86785 | 19.93732 | 37045 ft | 459 kts | 135° |
| 2026-05-05 06:42 | 46.82260 | 20.00319 | 37044 ft | 459 kts | 135° |
| 2026-05-05 06:42 | 46.77727 | 20.06896 | 37042 ft | 460 kts | 135° |
| 2026-05-05 06:43 | 46.73181 | 20.13478 | 37040 ft | 460 kts | 135° |
| 2026-05-05 06:43 | 46.68635 | 20.20035 | 37046 ft | 460 kts | 135° |
| 2026-05-05 06:44 | 46.64076 | 20.26585 | 37045 ft | 461 kts | 135° |
| 2026-05-05 06:44 | 46.59512 | 20.33139 | 37051 ft | 461 kts | 135° |
| 2026-05-05 06:45 | 46.54953 | 20.39682 | 37051 ft | 461 kts | 135° |
| 2026-05-05 06:45 | 46.50379 | 20.46220 | 37051 ft | 461 kts | 135° |
| 2026-05-05 06:46 | 46.45833 | 20.52695 | 37053 ft | 461 kts | 135° |
| 2026-05-05 06:46 | 46.41257 | 20.59202 | 37057 ft | 461 kts | 135° |
| 2026-05-05 06:47 | 46.36671 | 20.65715 | 37064 ft | 462 kts | 135° |
| 2026-05-05 06:47 | 46.32076 | 20.72218 | 37065 ft | 462 kts | 135° |
| 2026-05-05 06:48 | 46.27471 | 20.78712 | 37068 ft | 462 kts | 135° |
| 2026-05-05 06:48 | 46.22870 | 20.85190 | 37073 ft | 462 kts | 135° |
| 2026-05-05 06:49 | 46.18264 | 20.91671 | 37074 ft | 462 kts | 135° |
| 2026-05-05 06:49 | 46.13652 | 20.98136 | 37075 ft | 462 kts | 135° |
| 2026-05-05 06:50 | 46.09034 | 21.04579 | 37076 ft | 462 kts | 135° |
| 2026-05-05 06:50 | 46.04416 | 21.11018 | 37078 ft | 462 kts | 135° |
| 2026-05-05 06:51 | 45.99795 | 21.17452 | 37080 ft | 462 kts | 135° |
| 2026-05-05 06:51 | 45.95171 | 21.23870 | 37074 ft | 462 kts | 135° |
| 2026-05-05 06:52 | 45.90534 | 21.30279 | 37072 ft | 463 kts | 135° |
| 2026-05-05 06:52 | 45.85886 | 21.36588 | 37073 ft | 463 kts | 136° |
| 2026-05-05 06:53 | 45.81142 | 21.42839 | 37069 ft | 463 kts | 136° |
| 2026-05-05 06:53 | 45.76383 | 21.49062 | 37073 ft | 463 kts | 136° |
| 2026-05-05 06:54 | 45.71642 | 21.55307 | 37075 ft | 463 kts | 136° |
| 2026-05-05 06:54 | 45.66898 | 21.61552 | 37076 ft | 463 kts | 136° |
| 2026-05-05 06:55 | 45.62154 | 21.67782 | 37076 ft | 464 kts | 136° |
| 2026-05-05 06:55 | 45.57397 | 21.74006 | 37077 ft | 464 kts | 136° |
| 2026-05-05 06:56 | 45.53436 | 21.79189 | 37074 ft | 464 kts | 136° |
| 2026-05-05 06:56 | 45.48674 | 21.85389 | 37072 ft | 464 kts | 136° |
| 2026-05-05 06:57 | 45.43917 | 21.91596 | 37069 ft | 463 kts | 135° |
| 2026-05-05 06:57 | 45.39332 | 21.98051 | 37066 ft | 463 kts | 133° |
| 2026-05-05 06:58 | 45.34841 | 22.04610 | 37062 ft | 463 kts | 133° |
| 2026-05-05 06:58 | 45.30307 | 22.11125 | 37061 ft | 464 kts | 133° |
| 2026-05-05 06:59 | 45.25720 | 22.17572 | 37059 ft | 464 kts | 134° |
| 2026-05-05 06:59 | 45.21128 | 22.23994 | 37060 ft | 464 kts | 134° |
| 2026-05-05 07:00 | 45.16536 | 22.30427 | 37060 ft | 464 kts | 134° |
| 2026-05-05 07:00 | 45.11945 | 22.36863 | 37057 ft | 465 kts | 134° |
| 2026-05-05 07:01 | 45.07344 | 22.43310 | 37064 ft | 465 kts | 134° |
| 2026-05-05 07:01 | 45.02735 | 22.49732 | 37063 ft | 465 kts | 134° |
| 2026-05-05 07:02 | 44.98120 | 22.56150 | 37067 ft | 466 kts | 134° |
| 2026-05-05 07:02 | 44.93497 | 22.62562 | 37070 ft | 466 kts | 134° |
| 2026-05-05 07:03 | 44.88870 | 22.68981 | 37071 ft | 466 kts | 134° |
| 2026-05-05 07:03 | 44.84233 | 22.75391 | 37075 ft | 467 kts | 134° |
| 2026-05-05 07:04 | 44.79586 | 22.81771 | 37078 ft | 467 kts | 134° |
| 2026-05-05 07:04 | 44.74931 | 22.88155 | 37079 ft | 467 kts | 134° |
| 2026-05-05 07:05 | 44.70289 | 22.94526 | 37083 ft | 467 kts | 134° |
| 2026-05-05 07:05 | 44.65636 | 23.00900 | 37083 ft | 467 kts | 134° |
| 2026-05-05 07:06 | 44.60970 | 23.07256 | 37081 ft | 467 kts | 134° |
| 2026-05-05 07:06 | 44.56302 | 23.13605 | 37081 ft | 467 kts | 134° |
| 2026-05-05 07:07 | 44.51639 | 23.19950 | 37087 ft | 467 kts | 134° |
| 2026-05-05 07:07 | 44.46965 | 23.26283 | 37087 ft | 468 kts | 134° |
| 2026-05-05 07:08 | 44.42286 | 23.32610 | 37085 ft | 468 kts | 134° |
| 2026-05-05 07:08 | 44.37599 | 23.38927 | 37094 ft | 468 kts | 134° |
| 2026-05-05 07:09 | 44.32907 | 23.45235 | 37088 ft | 468 kts | 134° |
| 2026-05-05 07:09 | 44.28220 | 23.51536 | 37088 ft | 468 kts | 134° |
| 2026-05-05 07:10 | 44.23522 | 23.57827 | 37086 ft | 468 kts | 134° |
| 2026-05-05 07:10 | 44.18824 | 23.64087 | 37084 ft | 467 kts | 134° |
| 2026-05-05 07:11 | 44.14122 | 23.70355 | 37083 ft | 467 kts | 134° |
| 2026-05-05 07:11 | 44.09421 | 23.76610 | 37083 ft | 468 kts | 134° |
| 2026-05-05 07:12 | 44.04715 | 23.82853 | 37084 ft | 468 kts | 134° |
| 2026-05-05 07:12 | 44.00008 | 23.89091 | 37083 ft | 468 kts | 135° |
| 2026-05-05 07:13 | 43.95294 | 23.95318 | 37085 ft | 467 kts | 135° |
| 2026-05-05 07:13 | 43.90584 | 24.01531 | 37085 ft | 467 kts | 135° |
| 2026-05-05 07:14 | 43.85896 | 24.07692 | 37086 ft | 467 kts | 135° |
| 2026-05-05 07:14 | 43.81176 | 24.13876 | 37083 ft | 467 kts | 135° |
| 2026-05-05 07:15 | 43.76452 | 24.20059 | 37084 ft | 467 kts | 135° |
| 2026-05-05 07:15 | 43.71727 | 24.26233 | 37086 ft | 468 kts | 135° |
| 2026-05-05 07:16 | 43.66994 | 24.32392 | 37093 ft | 468 kts | 135° |
| 2026-05-05 07:16 | 43.62249 | 24.38552 | 37084 ft | 468 kts | 135° |
| 2026-05-05 07:17 | 43.57510 | 24.44706 | 37086 ft | 468 kts | 135° |
| 2026-05-05 07:17 | 43.52772 | 24.50849 | 37098 ft | 468 kts | 135° |
| 2026-05-05 07:18 | 43.48015 | 24.56988 | 37101 ft | 468 kts | 135° |
| 2026-05-05 07:18 | 43.43252 | 24.63100 | 37102 ft | 468 kts | 135° |
| 2026-05-05 07:19 | 43.38498 | 24.69209 | 37105 ft | 468 kts | 135° |
| 2026-05-05 07:19 | 43.33743 | 24.75318 | 37095 ft | 468 kts | 135° |
| 2026-05-05 07:20 | 43.28981 | 24.81402 | 37078 ft | 467 kts | 136° |
| 2026-05-05 07:20 | 43.24226 | 24.87471 | 37076 ft | 467 kts | 135° |
| 2026-05-05 07:21 | 43.19456 | 24.93548 | 37075 ft | 468 kts | 136° |
| 2026-05-05 07:21 | 43.14682 | 24.99613 | 37073 ft | 468 kts | 136° |
| 2026-05-05 07:22 | 43.09909 | 25.05668 | 37079 ft | 468 kts | 136° |
| 2026-05-05 07:22 | 43.05137 | 25.11703 | 37079 ft | 467 kts | 136° |
| 2026-05-05 07:23 | 43.00385 | 25.17697 | 37080 ft | 467 kts | 136° |
| 2026-05-05 07:23 | 42.95609 | 25.23715 | 37082 ft | 467 kts | 136° |
| 2026-05-05 07:24 | 42.90827 | 25.29719 | 37078 ft | 467 kts | 136° |
| 2026-05-05 07:24 | 42.86051 | 25.35717 | 37081 ft | 467 kts | 136° |
| 2026-05-05 07:25 | 42.81271 | 25.41701 | 37080 ft | 467 kts | 136° |
| 2026-05-05 07:25 | 42.76485 | 25.47663 | 37080 ft | 467 kts | 136° |
| 2026-05-05 07:26 | 42.71695 | 25.53630 | 37076 ft | 467 kts | 136° |
| 2026-05-05 07:26 | 42.66908 | 25.59588 | 37080 ft | 466 kts | 136° |
| 2026-05-05 07:27 | 42.62115 | 25.65526 | 37083 ft | 466 kts | 136° |
| 2026-05-05 07:27 | 42.57323 | 25.71451 | 37085 ft | 466 kts | 137° |
| 2026-05-05 07:28 | 42.52526 | 25.77375 | 37091 ft | 466 kts | 137° |
| 2026-05-05 07:28 | 42.47766 | 25.83249 | 37084 ft | 466 kts | 137° |
| 2026-05-05 07:29 | 42.42970 | 25.89148 | 37085 ft | 466 kts | 137° |
| 2026-05-05 07:29 | 42.38169 | 25.95036 | 37083 ft | 465 kts | 137° |
| 2026-05-05 07:30 | 42.33365 | 26.00908 | 37082 ft | 466 kts | 137° |
| 2026-05-05 07:30 | 42.26158 | 26.09714 | 37080 ft | 466 kts | 137° |
| 2026-05-05 07:31 | 42.21352 | 26.15569 | 37078 ft | 465 kts | 137° |
| 2026-05-05 07:31 | 42.16546 | 26.21405 | 37077 ft | 465 kts | 137° |
| 2026-05-05 07:32 | 42.11736 | 26.27237 | 37075 ft | 465 kts | 137° |
| 2026-05-05 07:32 | 42.06924 | 26.33062 | 37075 ft | 465 kts | 137° |
| 2026-05-05 07:33 | 42.02105 | 26.38879 | 37074 ft | 465 kts | 137° |
| 2026-05-05 07:33 | 41.97283 | 26.44690 | 37074 ft | 465 kts | 137° |
| 2026-05-05 07:34 | 41.92429 | 26.50524 | 37074 ft | 465 kts | 137° |
| 2026-05-05 07:34 | 41.87598 | 26.56303 | 37073 ft | 465 kts | 139° |
| 2026-05-05 07:35 | 41.82385 | 26.61370 | 37074 ft | 466 kts | 144° |
| 2026-05-05 07:35 | 41.77090 | 26.66369 | 37071 ft | 466 kts | 144° |
| 2026-05-05 07:36 | 41.71787 | 26.71375 | 37072 ft | 466 kts | 144° |
| 2026-05-05 07:36 | 41.66480 | 26.76369 | 37071 ft | 466 kts | 144° |
| 2026-05-05 07:37 | 41.61169 | 26.81366 | 37072 ft | 466 kts | 144° |
| 2026-05-05 07:37 | 41.55856 | 26.86350 | 37073 ft | 466 kts | 144° |
| 2026-05-05 07:38 | 41.50539 | 26.91324 | 37073 ft | 467 kts | 144° |
| 2026-05-05 07:38 | 41.45213 | 26.96299 | 37072 ft | 467 kts | 144° |
| 2026-05-05 07:39 | 41.39888 | 27.01267 | 37074 ft | 468 kts | 144° |
| 2026-05-05 07:39 | 41.34555 | 27.06232 | 37074 ft | 468 kts | 144° |
| 2026-05-05 07:40 | 41.29223 | 27.11173 | 37074 ft | 468 kts | 144° |
| 2026-05-05 07:40 | 41.24788 | 27.15288 | 37073 ft | 468 kts | 144° |
| 2026-05-05 07:41 | 41.19684 | 27.20011 | 37071 ft | 468 kts | 144° |
| 2026-05-05 07:41 | 41.14340 | 27.24946 | 37071 ft | 468 kts | 144° |
| 2026-05-05 07:42 | 41.08984 | 27.29875 | 37074 ft | 468 kts | 144° |
| 2026-05-05 07:42 | 41.03653 | 27.34771 | 37078 ft | 468 kts | 144° |
| 2026-05-05 07:43 | 40.98294 | 27.39687 | 37078 ft | 469 kts | 144° |
| 2026-05-05 07:43 | 40.92628 | 27.43921 | 37076 ft | 469 kts | 158° |
| 2026-05-05 07:44 | 40.86551 | 27.47101 | 37079 ft | 470 kts | 158° |
| 2026-05-05 07:44 | 40.80486 | 27.50310 | 37078 ft | 470 kts | 158° |
| 2026-05-05 07:45 | 40.74412 | 27.53529 | 37078 ft | 470 kts | 158° |
| 2026-05-05 07:45 | 40.68336 | 27.56732 | 37077 ft | 471 kts | 158° |
| 2026-05-05 07:46 | 40.62237 | 27.59920 | 37079 ft | 471 kts | 158° |
| 2026-05-05 07:46 | 40.56176 | 27.63084 | 37077 ft | 471 kts | 158° |
| 2026-05-05 07:47 | 40.50075 | 27.66272 | 37078 ft | 472 kts | 158° |
| 2026-05-05 07:47 | 40.43977 | 27.69490 | 37077 ft | 472 kts | 158° |
| 2026-05-05 07:48 | 40.37875 | 27.72725 | 37074 ft | 473 kts | 158° |
| 2026-05-05 07:48 | 40.31769 | 27.75946 | 37076 ft | 473 kts | 158° |
| 2026-05-05 07:49 | 40.25654 | 27.79150 | 37077 ft | 474 kts | 158° |
| 2026-05-05 07:49 | 40.19534 | 27.82353 | 37081 ft | 474 kts | 158° |
| 2026-05-05 07:50 | 40.13409 | 27.85556 | 37082 ft | 474 kts | 158° |
| 2026-05-05 07:50 | 40.07313 | 27.88739 | 37084 ft | 474 kts | 158° |
| 2026-05-05 07:51 | 40.01411 | 27.91816 | 37089 ft | 475 kts | 158° |
| 2026-05-05 07:51 | 39.95269 | 27.95002 | 37094 ft | 475 kts | 158° |
| 2026-05-05 07:52 | 39.89088 | 27.98209 | 37098 ft | 475 kts | 158° |
| 2026-05-05 07:52 | 39.82942 | 28.01372 | 37104 ft | 475 kts | 158° |
| 2026-05-05 07:53 | 39.76813 | 28.04436 | 37100 ft | 475 kts | 159° |
| 2026-05-05 07:53 | 39.70591 | 28.07508 | 37092 ft | 475 kts | 159° |
| 2026-05-05 07:54 | 39.64406 | 28.10572 | 37097 ft | 476 kts | 159° |
| 2026-05-05 07:54 | 39.58230 | 28.13647 | 37092 ft | 476 kts | 159° |
| 2026-05-05 07:55 | 39.52039 | 28.16726 | 37096 ft | 476 kts | 159° |
| 2026-05-05 07:55 | 39.45856 | 28.19793 | 37093 ft | 476 kts | 159° |
| 2026-05-05 07:56 | 39.39695 | 28.22829 | 37097 ft | 477 kts | 159° |
| 2026-05-05 07:56 | 39.33498 | 28.25883 | 37084 ft | 477 kts | 159° |
| 2026-05-05 07:57 | 39.27295 | 28.28948 | 37083 ft | 478 kts | 159° |
| 2026-05-05 07:57 | 39.21078 | 28.31989 | 37089 ft | 478 kts | 159° |
| 2026-05-05 07:58 | 39.14845 | 28.35018 | 37079 ft | 479 kts | 159° |
| 2026-05-05 07:58 | 39.08608 | 28.38046 | 37075 ft | 479 kts | 159° |
| 2026-05-05 07:59 | 39.02373 | 28.41087 | 37076 ft | 480 kts | 159° |
| 2026-05-05 07:59 | 38.96153 | 28.44222 | 37073 ft | 480 kts | 158° |
| 2026-05-05 08:00 | 38.89949 | 28.47386 | 37072 ft | 480 kts | 158° |
| 2026-05-05 08:00 | 38.83740 | 28.50531 | 37067 ft | 480 kts | 159° |
| 2026-05-05 08:01 | 38.77519 | 28.53647 | 37062 ft | 480 kts | 159° |
| 2026-05-05 08:01 | 38.71290 | 28.56758 | 37061 ft | 481 kts | 159° |
| 2026-05-05 08:02 | 38.65055 | 28.59868 | 37065 ft | 481 kts | 159° |
| 2026-05-05 08:02 | 38.58861 | 28.63099 | 37063 ft | 481 kts | 153° |
| 2026-05-05 08:03 | 38.53266 | 28.67752 | 37067 ft | 480 kts | 143° |
| 2026-05-05 08:03 | 38.47794 | 28.72674 | 37069 ft | 481 kts | 144° |
| 2026-05-05 08:04 | 38.42300 | 28.77556 | 37070 ft | 481 kts | 144° |
| 2026-05-05 08:04 | 38.36804 | 28.82440 | 37071 ft | 482 kts | 144° |
| 2026-05-05 08:05 | 38.31306 | 28.87338 | 37073 ft | 482 kts | 144° |
| 2026-05-05 08:05 | 38.25819 | 28.92225 | 37073 ft | 482 kts | 144° |
| 2026-05-05 08:06 | 38.20316 | 28.97105 | 37072 ft | 482 kts | 144° |
| 2026-05-05 08:06 | 38.14812 | 29.01981 | 37071 ft | 482 kts | 144° |
| 2026-05-05 08:07 | 38.09308 | 29.06852 | 37071 ft | 482 kts | 144° |
| 2026-05-05 08:07 | 38.03796 | 29.11714 | 37070 ft | 483 kts | 144° |
| 2026-05-05 08:08 | 37.98278 | 29.16580 | 37065 ft | 483 kts | 144° |
| 2026-05-05 08:08 | 37.92763 | 29.21432 | 37057 ft | 483 kts | 145° |
| 2026-05-05 08:09 | 37.87223 | 29.26288 | 37062 ft | 485 kts | 145° |
| 2026-05-05 08:09 | 37.81684 | 29.31141 | 37056 ft | 485 kts | 145° |
| 2026-05-05 08:10 | 37.76132 | 29.35994 | 37057 ft | 486 kts | 145° |
| 2026-05-05 08:10 | 37.70579 | 29.40844 | 37062 ft | 486 kts | 145° |
| 2026-05-05 08:11 | 37.65024 | 29.45694 | 37064 ft | 485 kts | 145° |
| 2026-05-05 08:11 | 37.59461 | 29.50527 | 37062 ft | 485 kts | 145° |
| 2026-05-05 08:12 | 37.53934 | 29.55326 | 37062 ft | 486 kts | 145° |
| 2026-05-05 08:12 | 37.48355 | 29.60162 | 37063 ft | 488 kts | 145° |
| 2026-05-05 08:13 | 37.42764 | 29.65005 | 37064 ft | 488 kts | 146° |
| 2026-05-05 08:13 | 37.37163 | 29.69840 | 37067 ft | 488 kts | 146° |
| 2026-05-05 08:14 | 37.31568 | 29.74655 | 37064 ft | 488 kts | 146° |
| 2026-05-05 08:14 | 37.25968 | 29.79481 | 37060 ft | 487 kts | 146° |
| 2026-05-05 08:15 | 37.20367 | 29.84303 | 37057 ft | 488 kts | 146° |
| 2026-05-05 08:15 | 37.14763 | 29.89124 | 37047 ft | 488 kts | 146° |
| 2026-05-05 08:16 | 37.09152 | 29.93930 | 37034 ft | 489 kts | 146° |
| 2026-05-05 08:16 | 37.03579 | 29.98708 | 37025 ft | 489 kts | 146° |
| 2026-05-05 08:17 | 36.97965 | 30.03524 | 37032 ft | 489 kts | 147° |
| 2026-05-05 08:17 | 36.92344 | 30.08323 | 37033 ft | 490 kts | 147° |
| 2026-05-05 08:18 | 36.86710 | 30.13114 | 37025 ft | 489 kts | 147° |
| 2026-05-05 08:18 | 36.81086 | 30.17904 | 37015 ft | 490 kts | 147° |
| 2026-05-05 08:19 | 36.75449 | 30.22686 | 37009 ft | 490 kts | 147° |
| 2026-05-05 08:19 | 36.69793 | 30.27452 | 37009 ft | 491 kts | 147° |
| 2026-05-05 08:20 | 36.64151 | 30.32214 | 37010 ft | 491 kts | 147° |
| 2026-05-05 08:20 | 36.58532 | 30.36967 | 37008 ft | 491 kts | 147° |
| 2026-05-05 08:21 | 36.52884 | 30.41716 | 37004 ft | 490 kts | 147° |
| 2026-05-05 08:21 | 36.47231 | 30.46449 | 36997 ft | 490 kts | 148° |
| 2026-05-05 08:22 | 36.41581 | 30.51186 | 36993 ft | 490 kts | 148° |
| 2026-05-05 08:22 | 36.35893 | 30.55954 | 36995 ft | 491 kts | 148° |
| 2026-05-05 08:23 | 36.30263 | 30.60653 | 36998 ft | 491 kts | 148° |
| 2026-05-05 08:23 | 36.24590 | 30.65386 | 36999 ft | 491 kts | 148° |
| 2026-05-05 08:24 | 36.18929 | 30.70102 | 37001 ft | 490 kts | 148° |
| 2026-05-05 08:24 | 36.13274 | 30.74808 | 37002 ft | 490 kts | 148° |
| 2026-05-05 08:25 | 36.07561 | 30.79412 | 36998 ft | 488 kts | 154° |
| 2026-05-05 08:25 | 36.02314 | 30.81963 | 37000 ft | 481 kts | 169° |
| 2026-05-05 08:26 | 35.95745 | 30.82937 | 37002 ft | 473 kts | 182° |
| 2026-05-05 08:26 | 35.89168 | 30.83321 | 37007 ft | 473 kts | 182° |
| 2026-05-05 08:27 | 35.82596 | 30.83727 | 37006 ft | 472 kts | 182° |
| 2026-05-05 08:27 | 35.76079 | 30.84131 | 37000 ft | 472 kts | 182° |
| 2026-05-05 08:28 | 35.69532 | 30.84847 | 36993 ft | 478 kts | 171° |
| 2026-05-05 08:28 | 35.66370 | 30.86205 | 36991 ft | 485 kts | 157° |
| 2026-05-05 08:28 | 35.63506 | 30.88427 | 36988 ft | 490 kts | 142° |
| 2026-05-05 08:29 | 35.61083 | 30.91450 | 36985 ft | 493 kts | 128° |
| 2026-05-05 08:29 | 35.59421 | 30.94694 | 36981 ft | 494 kts | 116° |
| 2026-05-05 08:30 | 35.56184 | 31.06676 | 36972 ft | 493 kts | 107° |
| 2026-05-05 08:30 | 35.54130 | 31.14731 | 36971 ft | 494 kts | 107° |
| 2026-05-05 08:31 | 35.52074 | 31.22785 | 36973 ft | 495 kts | 107° |
| 2026-05-05 08:31 | 35.50019 | 31.30839 | 36978 ft | 495 kts | 107° |
| 2026-05-05 08:32 | 35.47960 | 31.38897 | 36979 ft | 495 kts | 108° |
| 2026-05-05 08:32 | 35.45892 | 31.46952 | 36976 ft | 495 kts | 108° |
| 2026-05-05 08:33 | 35.43815 | 31.54997 | 36975 ft | 495 kts | 108° |
| 2026-05-05 08:33 | 35.41729 | 31.63041 | 36979 ft | 495 kts | 108° |
| 2026-05-05 08:34 | 35.39643 | 31.71069 | 36976 ft | 494 kts | 108° |
| 2026-05-05 08:34 | 35.37552 | 31.79089 | 36978 ft | 494 kts | 108° |
| 2026-05-05 08:35 | 35.35466 | 31.87052 | 36974 ft | 494 kts | 108° |
| 2026-05-05 08:35 | 35.33456 | 31.94726 | 36970 ft | 494 kts | 108° |
| 2026-05-05 08:36 | 35.31351 | 32.02732 | 36970 ft | 494 kts | 108° |
| 2026-05-05 08:36 | 35.29245 | 32.10733 | 36973 ft | 494 kts | 109° |
| 2026-05-05 08:37 | 35.27151 | 32.18739 | 36971 ft | 494 kts | 109° |
| 2026-05-05 08:37 | 35.25055 | 32.26739 | 36971 ft | 494 kts | 109° |
| 2026-05-05 08:38 | 35.22943 | 32.34754 | 36974 ft | 494 kts | 109° |
| 2026-05-05 08:38 | 35.20851 | 32.42698 | 36973 ft | 494 kts | 109° |
| 2026-05-05 08:38 | 35.19794 | 32.46703 | 36752 ft | 493 kts | 109° |
| 2026-05-05 08:39 | 35.18736 | 32.50695 | 35464 ft | 496 kts | 109° |
| 2026-05-05 08:39 | 35.17663 | 32.54739 | 33962 ft | 503 kts | 109° |
| 2026-05-05 08:39 | 35.16576 | 32.58836 | 32422 ft | 509 kts | 109° |
| 2026-05-05 08:39 | 35.15482 | 32.62960 | 30853 ft | 513 kts | 109° |
| 2026-05-05 08:40 | 35.14367 | 32.67142 | 29128 ft | 518 kts | 108° |
| 2026-05-05 08:40 | 35.13246 | 32.71339 | 27307 ft | 521 kts | 108° |
| 2026-05-05 08:40 | 35.12121 | 32.75551 | 25394 ft | 523 kts | 108° |
| 2026-05-05 08:40 | 35.10989 | 32.79783 | 23374 ft | 525 kts | 108° |
| 2026-05-05 08:41 | 35.09952 | 32.83653 | 22133 ft | 513 kts | 109° |
| 2026-05-05 08:41 | 35.08858 | 32.87734 | 20859 ft | 498 kts | 109° |
| 2026-05-05 08:41 | 35.07791 | 32.91708 | 19529 ft | 487 kts | 109° |
| 2026-05-05 08:41 | 35.06745 | 32.95581 | 18208 ft | 475 kts | 109° |
| 2026-05-05 08:42 | 35.05689 | 32.99355 | 16914 ft | 465 kts | 110° |
| 2026-05-05 08:42 | 35.04626 | 33.03040 | 15641 ft | 455 kts | 111° |
| 2026-05-05 08:42 | 35.03581 | 33.06613 | 14965 ft | 435 kts | 111° |
| 2026-05-05 08:42 | 35.02598 | 33.09961 | 14811 ft | 405 kts | 111° |
| 2026-05-05 08:43 | 35.01684 | 33.13095 | 14682 ft | 378 kts | 111° |
| 2026-05-05 08:43 | 35.00838 | 33.16020 | 14556 ft | 354 kts | 111° |
| 2026-05-05 08:43 | 35.00042 | 33.18783 | 14238 ft | 340 kts | 111° |
| 2026-05-05 08:43 | 34.99264 | 33.21479 | 13705 ft | 334 kts | 111° |
| 2026-05-05 08:44 | 34.98496 | 33.24139 | 13139 ft | 330 kts | 111° |
| 2026-05-05 08:44 | 34.97736 | 33.26760 | 12560 ft | 326 kts | 111° |
| 2026-05-05 08:44 | 34.96984 | 33.29353 | 11977 ft | 322 kts | 111° |
| 2026-05-05 08:44 | 34.96240 | 33.31917 | 11370 ft | 319 kts | 111° |
| 2026-05-05 08:45 | 34.95503 | 33.34452 | 10791 ft | 315 kts | 111° |
| 2026-05-05 08:45 | 34.94774 | 33.36951 | 10191 ft | 311 kts | 111° |
| 2026-05-05 08:45 | 34.94056 | 33.39417 | 9595 ft | 307 kts | 111° |
| 2026-05-05 08:45 | 34.93349 | 33.41850 | 9003 ft | 303 kts | 111° |
| 2026-05-05 08:46 | 34.92650 | 33.44254 | 8406 ft | 299 kts | 111° |
| 2026-05-05 08:46 | 34.91964 | 33.46614 | 8055 ft | 291 kts | 111° |
| 2026-05-05 08:46 | 34.91285 | 33.48947 | 7941 ft | 293 kts | 111° |
| 2026-05-05 08:46 | 34.90603 | 33.51287 | 7657 ft | 290 kts | 111° |
| 2026-05-05 08:47 | 34.89930 | 33.53579 | 7298 ft | 291 kts | 111° |
| 2026-05-05 08:47 | 34.89245 | 33.55903 | 6783 ft | 284 kts | 111° |
| 2026-05-05 08:47 | 34.88587 | 33.58137 | 6317 ft | 275 kts | 111° |
| 2026-05-05 08:47 | 34.87952 | 33.60304 | 5852 ft | 269 kts | 111° |
| 2026-05-05 08:48 | 34.87492 | 33.62453 | 5375 ft | 264 kts | 98° |
| 2026-05-05 08:48 | 34.87476 | 33.64636 | 5098 ft | 251 kts | 84° |
| 2026-05-05 08:48 | 34.87649 | 33.66690 | 5008 ft | 230 kts | 84° |
| 2026-05-05 08:48 | 34.87805 | 33.68600 | 4938 ft | 226 kts | 84° |
| 2026-05-05 08:49 | 34.88007 | 33.70468 | 4809 ft | 225 kts | 73° |
| 2026-05-05 08:49 | 34.88685 | 33.72167 | 4688 ft | 223 kts | 50° |
| 2026-05-05 08:49 | 34.89845 | 33.73409 | 4579 ft | 218 kts | 26° |
| 2026-05-05 08:49 | 34.91228 | 33.74019 | 4352 ft | 214 kts | 6° |
| 2026-05-05 08:50 | 34.92669 | 33.74409 | 4068 ft | 213 kts | 14° |
| 2026-05-05 08:50 | 34.94012 | 33.75192 | 3803 ft | 215 kts | 26° |
| 2026-05-05 08:50 | 34.95297 | 33.76099 | 3537 ft | 213 kts | 27° |
| 2026-05-05 08:50 | 34.96559 | 33.77011 | 3277 ft | 208 kts | 27° |
| 2026-05-05 08:51 | 34.97787 | 33.77897 | 2996 ft | 201 kts | 25° |
| 2026-05-05 08:51 | 34.99090 | 33.78333 | 2734 ft | 192 kts | 356° |
| 2026-05-05 08:51 | 35.00326 | 33.77965 | 2576 ft | 181 kts | 328° |
| 2026-05-05 08:51 | 35.01244 | 33.76972 | 2452 ft | 176 kts | 303° |
| 2026-05-05 08:52 | 35.01676 | 33.75601 | 2310 ft | 175 kts | 275° |
| 2026-05-05 08:52 | 35.01431 | 33.74162 | 2215 ft | 178 kts | 241° |
| 2026-05-05 08:52 | 35.00519 | 33.73133 | 2145 ft | 184 kts | 207° |
| 2026-05-05 08:52 | 34.99261 | 33.72881 | 2062 ft | 188 kts | 174° |
| 2026-05-05 08:53 | 34.97959 | 33.73157 | 1985 ft | 188 kts | 179° |
| 2026-05-05 08:53 | 34.96745 | 33.73005 | 2005 ft | 166 kts | 197° |
| 2026-05-05 08:53 | 34.95734 | 33.72472 | 1869 ft | 152 kts | 215° |
| 2026-05-05 08:53 | 34.94955 | 33.71671 | 1736 ft | 142 kts | 228° |
| 2026-05-05 08:54 | 34.94286 | 33.70854 | 1575 ft | 133 kts | 227° |
| 2026-05-05 08:54 | 34.93643 | 33.70067 | 1419 ft | 130 kts | 228° |
| 2026-05-05 08:54 | 34.93005 | 33.69285 | 1268 ft | 130 kts | 227° |
| 2026-05-05 08:54 | 34.92365 | 33.68502 | 1102 ft | 130 kts | 227° |
| 2026-05-05 08:55 | 34.91728 | 33.67722 | 947 ft | 129 kts | 227° |
| 2026-05-05 08:55 | 34.91093 | 33.66944 | 789 ft | 129 kts | 227° |
| 2026-05-05 08:55 | 34.90459 | 33.66168 | 638 ft | 129 kts | 227° |
| 2026-05-05 08:55 | 34.89829 | 33.65397 | 474 ft | 128 kts | 227° |
| 2026-05-05 08:56 | 34.89199 | 33.64627 | 324 ft | 128 kts | 226° |
| 2026-05-05 08:56 | 34.88572 | 33.63860 | 167 ft | 127 kts | 226° |
| 2026-05-05 08:56 | 34.87948 | 33.63096 | 27 ft | 125 kts | 225° |
| 2026-05-05 08:56 | 34.87454 | 33.62492 | 20 ft | 61 kts | 225° |
| 2026-05-05 08:57 | 34.87228 | 33.62211 | 21 ft | 43 kts | 225° |
| 2026-05-05 08:57 | 34.87052 | 33.61994 | 23 ft | 26 kts | 229° |
| 2026-05-05 08:57 | 34.86979 | 33.61825 | 22 ft | 17 kts | 251° |
| 2026-05-05 08:57 | 34.86942 | 33.61682 | 21 ft | 19 kts | 255° |
| 2026-05-05 08:58 | 34.86906 | 33.61521 | 21 ft | 20 kts | 256° |
| 2026-05-05 08:58 | 34.86834 | 33.61372 | 21 ft | 21 kts | 224° |
| 2026-05-05 08:58 | 34.86725 | 33.61241 | 21 ft | 21 kts | 225° |
| 2026-05-05 08:58 | 34.86642 | 33.61122 | 21 ft | 18 kts | 251° |
| 2026-05-05 08:59 | 34.86698 | 33.61001 | 21 ft | 16 kts | 315° |
| 2026-05-05 08:59 | 34.86759 | 33.60931 | 22 ft | 8 kts | 332° |
| 2026-05-05 08:59 | 34.86808 | 33.60962 | 22 ft | 8 kts | 45° |
| 2026-05-05 08:59 | 34.86824 | 33.60984 | 21 ft | 4 kts | 51° |
| 2026-05-05 09:00 | 34.86831 | 33.60994 | 21 ft | 0 kts | 47° |